Time;durP1;ratioP1;P1;durP2;ratioP2;P2;SDS_P1;SDS_P2;PMS_P1;PMS_P2;Temp;Humidity;BMP_temperature;BMP_pressure;BME280_temperature;BME280_humidity;BME280_pressure;Samples;Min_cycle;Max_cycle;Signal;HPM_P1;HPM_P2
2022/04/12 00:00:42;;;;;;;2.17;1.70;;;;;;;14.48;48.85;99321.54;1831800;77;21129;-60
2022/04/12 00:03:10;;;;;;;2.83;2.17;;;;;;;14.47;48.86;99314.05;1831865;78;21048;-60
2022/04/12 00:05:39;;;;;;;2.15;1.72;;;;;;;14.45;48.83;99314.77;1831691;77;21472;-62
2022/04/12 00:08:07;;;;;;;2.12;1.82;;;;;;;14.46;48.83;99310.23;1831853;78;21017;-59
2022/04/12 00:10:35;;;;;;;2.22;1.60;;;;;;;14.45;48.85;99312.61;1831244;77;21013;-59
2022/04/12 00:13:02;;;;;;;2.50;1.80;;;;;;;14.45;48.85;99313.95;1813570;78;21035;-60
2022/04/12 00:15:29;;;;;;;1.45;1.25;;;;;;;14.44;48.84;99305.61;1799354;79;21002;-59
2022/04/12 00:20:43;;;;;;;2.00;1.87;;;;;;;14.42;48.83;99301.80;1799139;79;20986;-58
2022/04/12 00:23:12;;;;;;;2.00;1.50;;;;;;;14.41;48.84;99306.84;1799326;79;21060;-60
2022/04/12 00:25:38;;;;;;;2.30;1.80;;;;;;;14.42;48.84;99306.33;1799196;79;21150;-60
2022/04/12 00:28:06;;;;;;;2.05;1.70;;;;;;;14.41;48.85;99304.66;1799129;79;21028;-60
2022/04/12 00:30:33;;;;;;;2.25;1.75;;;;;;;14.39;48.85;99304.89;1800261;78;21045;-59
2022/04/12 00:32:59;;;;;;;2.62;1.67;;;;;;;14.39;48.86;99303.56;1799140;79;21016;-59
2022/04/12 00:35:26;;;;;;;2.58;1.72;;;;;;;14.38;48.85;99300.56;1799501;79;21053;-59
2022/04/12 00:37:52;;;;;;;2.22;1.80;;;;;;;14.39;48.83;99302.71;1799131;79;21090;-59
2022/04/12 00:40:24;;;;;;;1.75;1.65;;;;;;;14.38;48.85;99302.42;1799206;79;21025;-59
2022/04/12 00:42:50;;;;;;;2.90;2.40;;;;;;;14.37;48.84;99297.59;1799095;79;20953;-59
2022/04/12 00:45:17;;;;;;;2.00;1.80;;;;;;;14.36;48.84;99296.75;1799276;78;21496;-59
2022/04/12 00:47:44;;;;;;;2.65;2.12;;;;;;;14.36;48.83;99295.94;1795292;78;21026;-59
2022/04/12 00:50:12;;;;;;;1.95;1.60;;;;;;;14.35;48.82;99296.45;1795643;78;21138;-60
2022/04/12 00:52:44;;;;;;;2.00;1.77;;;;;;;14.35;48.83;99302.29;1825747;78;21021;-60
2022/04/12 00:55:11;;;;;;;2.00;1.80;;;;;;;14.34;48.86;99292.13;1825732;78;21018;-60
2022/04/12 00:57:38;;;;;;;2.00;1.70;;;;;;;14.33;48.84;99294.50;1825730;78;20993;-59
2022/04/12 01:00:07;;;;;;;2.40;1.70;;;;;;;14.33;48.86;99307.86;1825837;78;21533;-59
2022/04/12 01:02:34;;;;;;;3.22;1.85;;;;;;;14.33;48.83;99299.00;1826119;78;21014;-59
2022/04/12 01:05:04;;;;;;;2.55;2.15;;;;;;;14.32;48.83;99296.85;1824459;78;20994;-58
2022/04/12 01:07:33;;;;;;;2.42;1.82;;;;;;;14.31;48.82;99297.89;1825770;78;21049;-59
2022/04/12 01:10:00;;;;;;;2.27;1.72;;;;;;;14.31;48.82;99303.23;1824340;78;21524;-59
2022/04/12 01:12:28;;;;;;;2.95;2.10;;;;;;;14.31;48.82;99288.54;1820009;78;21557;-60
2022/04/12 01:15:13;;;;;;;2.40;2.05;;;;;;;14.31;48.82;99295.22;1825789;78;21089;-60
2022/04/12 01:17:40;;;;;;;1.85;1.65;;;;;;;14.31;48.82;99291.70;1808523;78;21431;-60
2022/04/12 01:20:09;;;;;;;2.10;1.80;;;;;;;14.30;48.80;99282.06;1819731;78;21512;-60
2022/04/12 01:22:48;;;;;;;3.33;2.00;;;;;;;14.29;48.82;99285.25;1793225;79;20990;-60
2022/04/12 01:25:18;;;;;;;2.92;1.90;;;;;;;14.29;48.83;99285.25;1793309;79;21099;-60
2022/04/12 01:27:46;;;;;;;2.12;1.75;;;;;;;14.28;48.83;99282.78;1793158;79;21084;-59
2022/04/12 01:30:12;;;;;;;1.92;1.52;;;;;;;14.28;48.84;99284.11;1793600;80;21081;-59
2022/04/12 01:32:40;;;;;;;2.17;1.85;;;;;;;14.26;48.83;99282.97;1793340;79;21009;-59
2022/04/12 01:35:08;;;;;;;2.00;1.65;;;;;;;14.26;48.83;99281.64;1793251;80;21100;-59
2022/04/12 01:37:35;;;;;;;1.98;1.70;;;;;;;14.25;48.82;99283.98;1794301;78;21048;-59
2022/04/12 01:40:03;;;;;;;2.12;1.92;;;;;;;14.26;48.82;99291.51;1793345;80;22122;-59
2022/04/12 01:42:30;;;;;;;2.47;1.80;;;;;;;14.24;48.82;99286.36;1793464;80;20982;-60
2022/04/12 01:44:56;;;;;;;2.45;1.70;;;;;;;14.25;48.85;99281.84;1793204;78;21002;-60
2022/04/12 01:47:23;;;;;;;1.98;1.77;;;;;;;14.23;48.84;99279.36;1793048;79;21018;-58
2022/04/12 01:49:49;;;;;;;2.42;2.05;;;;;;;14.24;48.82;99276.20;1793235;80;20990;-58
2022/04/12 01:52:16;;;;;;;2.10;1.60;;;;;;;14.23;48.81;99277.20;1823710;78;21132;-58
2022/04/12 01:54:42;;;;;;;2.10;1.65;;;;;;;14.23;48.81;99264.66;1824807;78;21536;-60
2022/04/12 01:57:10;;;;;;;2.15;1.80;;;;;;;14.22;48.81;99263.04;1825807;78;20990;-59
2022/04/12 01:59:37;;;;;;;3.05;2.12;;;;;;;14.22;48.81;99259.55;1825933;78;21489;-58
2022/04/12 02:02:04;;;;;;;2.35;1.92;;;;;;;14.22;48.81;99257.70;1825814;78;21064;-59
2022/04/12 02:04:31;;;;;;;2.30;1.95;;;;;;;14.21;48.80;99258.70;1825728;78;21137;-59
2022/04/12 02:06:58;;;;;;;1.95;1.65;;;;;;;14.20;48.79;99255.73;1825742;78;21069;-59
2022/04/12 02:09:25;;;;;;;1.87;1.57;;;;;;;14.20;48.81;99253.07;1825920;78;21022;-59
2022/04/12 02:11:55;;;;;;;2.90;1.75;;;;;;;14.19;48.79;99252.75;1824688;78;21037;-59
2022/04/12 02:14:22;;;;;;;1.70;1.60;;;;;;;14.19;48.80;99236.72;1825997;78;21041;-59
2022/04/12 02:16:50;;;;;;;2.00;1.80;;;;;;;14.18;48.80;99232.42;1818552;78;21478;-60
2022/04/12 02:19:16;;;;;;;2.45;1.90;;;;;;;14.18;48.78;99231.08;1825901;78;21013;-59
2022/04/12 02:21:44;;;;;;;2.65;1.80;;;;;;;14.16;48.79;99231.28;1825915;78;21529;-60
2022/04/12 02:24:11;;;;;;;2.92;1.95;;;;;;;14.16;48.81;99233.14;1825949;78;21061;-59
2022/04/12 02:26:37;;;;;;;1.98;1.55;;;;;;;14.15;48.79;99237.63;1825916;78;20979;-60
2022/04/12 02:29:04;;;;;;;3.50;2.05;;;;;;;14.15;48.79;99231.48;1807088;78;22149;-60
2022/04/12 02:31:31;;;;;;;2.37;1.67;;;;;;;14.14;48.80;99240.02;1793548;80;21045;-58
2022/04/12 02:33:58;;;;;;;2.47;1.98;;;;;;;14.14;48.79;99240.53;1793444;80;20981;-60
2022/04/12 02:36:24;;;;;;;2.33;1.80;;;;;;;14.13;48.80;99246.37;1793438;79;22049;-60
2022/04/12 02:38:52;;;;;;;2.65;1.90;;;;;;;14.13;48.80;99248.22;1793346;79;20993;-59
2022/04/12 02:41:19;;;;;;;1.82;1.52;;;;;;;14.12;48.80;99249.27;1793486;79;21131;-58
2022/04/12 02:43:47;;;;;;;2.08;1.72;;;;;;;14.11;48.81;99256.44;1793211;78;21069;-59
2022/04/12 02:46:15;;;;;;;1.98;1.62;;;;;;;14.12;48.81;99265.29;1794632;78;21036;-59
2022/04/12 02:48:42;;;;;;;2.37;1.72;;;;;;;14.11;48.80;99260.96;1799026;79;21481;-60
2022/04/12 02:51:08;;;;;;;2.25;1.92;;;;;;;14.10;48.81;99265.48;1814890;78;21336;-59
2022/04/12 02:53:35;;;;;;;2.17;1.87;;;;;;;14.08;48.80;99256.86;1831979;78;21247;-59
2022/04/12 02:56:01;;;;;;;1.87;1.67;;;;;;;14.08;48.82;99256.02;1831870;77;21040;-59
2022/04/12 02:58:29;;;;;;;2.40;1.77;;;;;;;14.08;48.79;99246.66;1831972;78;21005;-59
2022/04/12 03:00:57;;;;;;;1.70;1.60;;;;;;;14.08;48.82;99245.33;1831971;77;21045;-58
2022/04/12 03:03:23;;;;;;;2.02;1.80;;;;;;;14.07;48.80;99243.70;1831202;78;21033;-59
2022/04/12 03:05:50;;;;;;;3.22;2.02;;;;;;;14.06;48.80;99246.89;1831966;77;21121;-60
2022/04/12 03:08:17;;;;;;;2.02;1.67;;;;;;;14.05;48.80;99241.22;1832074;78;21472;-59
2022/04/12 03:10:43;;;;;;;2.42;1.80;;;;;;;14.04;48.81;99243.60;1832042;77;21021;-59
2022/04/12 03:13:09;;;;;;;2.75;1.55;;;;;;;14.04;48.83;99233.41;1831890;77;20978;-60
2022/04/12 03:15:38;;;;;;;2.37;1.80;;;;;;;14.04;48.81;99234.74;1832076;77;20978;-59
2022/04/12 03:18:04;;;;;;;2.10;1.87;;;;;;;14.02;48.81;99234.13;1831925;78;21131;-59
2022/04/12 03:20:32;;;;;;;2.40;1.70;;;;;;;14.02;48.83;99228.27;1830770;78;21017;-59
2022/04/12 03:22:59;;;;;;;3.25;1.98;;;;;;;14.02;48.82;99246.14;1831850;78;21052;-59
2022/04/12 03:25:27;;;;;;;3.00;1.80;;;;;;;14.01;48.82;99236.50;1831963;77;21009;-59
2022/04/12 03:27:53;;;;;;;2.20;1.62;;;;;;;14.01;48.82;99233.83;1831909;78;20994;-59
2022/04/12 03:30:19;;;;;;;2.10;1.77;;;;;;;14.00;48.81;99236.18;1832023;77;22110;-60
2022/04/12 03:32:46;;;;;;;1.98;1.72;;;;;;;14.00;48.82;99238.33;1831922;77;20986;-59
2022/04/12 03:35:12;;;;;;;1.80;1.42;;;;;;;13.99;48.81;99239.37;1831949;77;21013;-60
2022/04/12 03:37:39;;;;;;;1.75;1.50;;;;;;;13.99;48.83;99241.23;1805156;78;21532;-60
2022/04/12 03:40:08;;;;;;;2.90;1.87;;;;;;;13.99;48.82;99230.55;1799219;79;21069;-59
2022/04/12 03:42:36;;;;;;;2.10;1.90;;;;;;;13.98;48.82;99232.37;1799296;79;20954;-58
2022/04/12 03:45:04;;;;;;;3.58;2.00;;;;;;;13.98;48.82;99231.03;1799272;78;21445;-59
2022/04/12 03:47:31;;;;;;;2.33;1.90;;;;;;;13.98;48.82;99228.36;1799300;79;21036;-60
2022/04/12 03:49:57;;;;;;;1.82;1.50;;;;;;;13.96;48.81;99232.59;1799247;79;21061;-60
2022/04/12 03:52:24;;;;;;;1.72;1.40;;;;;;;13.96;48.83;99227.25;1831707;78;20986;-60
2022/04/12 03:54:50;;;;;;;1.85;1.45;;;;;;;13.96;48.85;99233.93;1831071;78;21821;-59
2022/04/12 03:57:17;;;;;;;3.58;1.92;;;;;;;13.95;48.84;99241.62;1831834;78;21048;-60
2022/04/12 03:59:43;;;;;;;1.72;1.62;;;;;;;13.95;48.84;99241.62;1832030;77;21471;-59
2022/04/12 04:02:10;;;;;;;1.85;1.65;;;;;;;13.96;48.81;99249.11;1831887;77;20994;-59
2022/04/12 04:04:36;;;;;;;1.80;1.57;;;;;;;13.96;48.81;99254.45;1832056;78;21017;-59
2022/04/12 04:07:04;;;;;;;1.75;1.40;;;;;;;13.96;48.81;99251.78;1832059;77;21473;-60
2022/04/12 04:09:30;;;;;;;1.92;1.57;;;;;;;13.95;48.83;99248.30;1832005;78;21106;-59
2022/04/12 04:11:57;;;;;;;3.08;1.90;;;;;;;13.95;48.83;99262.17;1830745;77;21060;-60
2022/04/12 04:14:26;;;;;;;1.65;1.30;;;;;;;13.94;48.81;99254.64;1831999;77;20993;-59
2022/04/12 04:16:53;;;;;;;2.60;1.87;;;;;;;13.94;48.82;99255.16;1831901;78;20979;-61
2022/04/12 04:19:20;;;;;;;2.05;1.60;;;;;;;13.94;48.83;99258.65;1832065;78;21132;-60
2022/04/12 04:21:47;;;;;;;2.00;1.80;;;;;;;13.95;48.83;99264.31;1831841;78;20994;-62
2022/04/12 04:24:13;;;;;;;2.05;1.70;;;;;;;13.96;48.83;99259.79;1832115;77;21489;-59
2022/04/12 04:26:40;;;;;;;2.00;1.60;;;;;;;13.95;48.80;99262.17;1831646;77;21016;-59
2022/04/12 04:29:06;;;;;;;2.25;1.47;;;;;;;13.95;48.83;99252.81;1831319;78;20992;-60
2022/04/12 04:31:33;;;;;;;2.37;1.82;;;;;;;13.95;48.80;99258.97;1831969;78;21137;-59
2022/04/12 04:34:00;;;;;;;1.82;1.50;;;;;;;13.95;48.80;99261.64;1832047;78;21433;-59
2022/04/12 04:36:26;;;;;;;2.80;1.77;;;;;;;13.95;48.81;99268.32;1832055;78;21008;-59
2022/04/12 04:38:53;;;;;;;2.50;1.60;;;;;;;13.98;48.80;99278.28;1831821;78;21012;-59
2022/04/12 04:41:19;;;;;;;2.20;1.90;;;;;;;13.97;48.80;99270.80;1832248;78;21456;-60
2022/04/12 04:43:48;;;;;;;2.70;1.87;;;;;;;13.96;48.80;99276.66;1830336;78;21060;-59
2022/04/12 04:46:15;;;;;;;1.87;1.67;;;;;;;13.98;48.79;99283.63;1799243;79;21057;-60
2022/04/12 04:48:42;;;;;;;1.85;1.72;;;;;;;13.98;48.79;99291.12;1799261;79;20998;-59
2022/04/12 04:51:10;;;;;;;1.85;1.60;;;;;;;13.98;48.79;99290.30;1814884;78;21056;-58
2022/04/12 04:53:37;;;;;;;2.22;1.70;;;;;;;13.98;48.77;99291.12;1831957;78;21012;-59
2022/04/12 04:56:06;;;;;;;2.83;2.10;;;;;;;13.99;48.77;99290.63;1831986;78;21073;-59
2022/04/12 04:58:33;;;;;;;2.22;1.62;;;;;;;13.99;48.79;99285.29;1831324;77;20982;-59
2022/04/12 05:01:00;;;;;;;2.30;1.80;;;;;;;13.99;48.77;99297.30;1830937;77;21005;-59
2022/04/12 05:03:27;;;;;;;2.35;1.60;;;;;;;13.99;48.77;99291.45;1831964;77;21021;-60
2022/04/12 05:05:53;;;;;;;2.02;1.72;;;;;;;13.99;48.75;99288.77;1831846;78;21029;-59
2022/04/12 05:08:20;;;;;;;2.25;2.05;;;;;;;14.00;48.75;99284.25;1831933;78;21125;-59
2022/04/12 05:10:48;;;;;;;2.08;1.70;;;;;;;14.00;48.78;99285.58;1831846;77;21005;-60
2022/04/12 05:13:15;;;;;;;3.98;1.95;;;;;;;14.01;48.77;99291.25;1831963;78;21009;-60
2022/04/12 05:15:42;;;;;;;2.98;1.62;;;;;;;14.01;48.76;99283.23;1831972;78;21471;-59
2022/04/12 05:18:09;;;;;;;2.85;2.02;;;;;;;14.02;48.75;99276.85;1830699;78;21008;-60
2022/04/12 05:20:38;;;;;;;3.17;1.70;;;;;;;14.01;48.75;99280.05;1831908;77;21053;-60
2022/04/12 05:23:05;;;;;;;2.20;1.70;;;;;;;14.02;48.75;99288.35;1831797;78;21060;-59
2022/04/12 05:25:32;;;;;;;1.40;1.30;;;;;;;14.02;48.75;99275.00;1832066;77;21009;-60
2022/04/12 05:27:59;;;;;;;1.90;1.72;;;;;;;14.03;48.74;99283.86;1831952;77;20997;-60
2022/04/12 05:30:25;;;;;;;1.70;1.60;;;;;;;14.03;48.76;99282.00;1832016;78;20985;-61
2022/04/12 05:32:53;;;;;;;2.10;1.60;;;;;;;14.04;48.74;99280.14;1831885;77;21704;-60
2022/04/12 05:35:20;;;;;;;1.82;1.60;;;;;;;14.04;48.74;99286.83;1823418;77;21009;-60
2022/04/12 05:37:48;;;;;;;2.20;1.82;;;;;;;14.04;48.75;99280.14;1799227;79;20978;-60
2022/04/12 05:40:15;;;;;;;3.30;1.55;;;;;;;14.04;48.74;99284.16;1799170;79;21040;-59
2022/04/12 05:42:42;;;;;;;2.27;1.75;;;;;;;14.05;48.75;99285.30;1799232;79;20998;-59
2022/04/12 05:45:10;;;;;;;2.00;1.60;;;;;;;14.06;48.73;99292.30;1799150;78;21133;-59
2022/04/12 05:47:46;;;;;;;1.90;1.70;;;;;;;14.06;48.74;99297.64;1798973;79;20993;-59
2022/04/12 05:50:14;;;;;;;2.42;1.77;;;;;;;14.06;48.74;99294.12;1802027;78;21024;-60
2022/04/12 05:52:41;;;;;;;1.70;1.60;;;;;;;14.07;48.72;99296.59;1830893;78;21489;-59
2022/04/12 05:55:15;;;;;;;1.98;1.52;;;;;;;14.08;48.75;99290.24;1831840;77;20982;-59
2022/04/12 05:57:55;;;;;;;2.33;1.62;;;;;;;14.10;48.72;99298.03;1831841;77;21045;-60
2022/04/12 06:03:04;;;;;;;2.72;1.70;;;;;;;14.15;48.73;99294.25;1870367;76;28447;-58
2022/04/12 06:05:32;;;;;;;1.92;1.70;;;;;;;14.12;48.70;99299.50;1826716;78;21486;-60
2022/04/12 06:07:59;;;;;;;2.37;1.70;;;;;;;14.14;48.71;99300.63;1826513;78;21125;-60
2022/04/12 06:10:27;;;;;;;1.90;1.60;;;;;;;14.15;48.71;99303.59;1802922;78;20953;-60
2022/04/12 06:12:54;;;;;;;2.62;1.65;;;;;;;14.15;48.71;99296.92;1793988;80;20977;-60
2022/04/12 06:15:21;;;;;;;1.50;1.40;;;;;;;14.16;48.71;99297.25;1794061;80;21013;-60
2022/04/12 06:17:49;;;;;;;1.65;1.55;;;;;;;14.18;48.71;99304.55;1794242;79;20996;-60
2022/04/12 06:20:17;;;;;;;2.45;1.60;;;;;;;14.19;48.72;99300.02;1794046;80;21693;-60
2022/04/12 06:22:44;;;;;;;2.87;1.52;;;;;;;14.20;48.71;99297.15;1794159;79;20969;-59
2022/04/12 06:25:12;;;;;;;2.12;1.70;;;;;;;14.20;48.71;99294.97;1794015;80;21589;-60
2022/04/12 06:27:42;;;;;;;2.20;1.47;;;;;;;14.21;48.68;99301.45;1795021;78;21005;-60
2022/04/12 06:30:13;;;;;;;2.92;1.65;;;;;;;14.22;48.69;99299.11;1794329;80;21005;-60
2022/04/12 06:32:41;;;;;;;2.60;1.87;;;;;;;14.23;48.67;99300.73;1794134;79;21103;-58
2022/04/12 06:35:10;;;;;;;2.58;1.60;;;;;;;14.24;48.71;99293.56;1832005;77;21450;-59
2022/04/12 06:37:39;;;;;;;2.42;1.70;;;;;;;14.26;48.70;99296.86;1844337;76;21510;-60
2022/04/12 06:40:09;;;;;;;1.70;1.60;;;;;;;14.27;48.74;99294.48;1821190;78;21544;-60
2022/04/12 06:42:37;;;;;;;1.98;1.50;;;;;;;14.28;48.71;99291.61;1825981;78;21088;-59
2022/04/12 06:45:05;;;;;;;1.98;1.60;;;;;;;14.29;48.71;99289.26;1795180;78;21043;-60
2022/04/12 06:47:33;;;;;;;1.85;1.62;;;;;;;14.31;48.70;99297.05;1793904;80;21009;-59
2022/04/12 06:50:00;;;;;;;2.02;1.70;;;;;;;14.32;48.69;99292.03;1793854;78;20986;-61
2022/04/12 06:52:27;;;;;;;1.57;1.47;;;;;;;14.32;48.68;99291.51;1826529;78;20982;-61
2022/04/12 06:54:55;;;;;;;2.35;1.47;;;;;;;14.33;48.69;99281.63;1826636;78;21056;-60
2022/04/12 06:57:21;;;;;;;2.37;1.77;;;;;;;14.34;48.69;99289.45;1826529;78;21174;-60
2022/04/12 06:59:49;;;;;;;2.33;1.52;;;;;;;14.35;48.67;99287.11;1825299;78;21019;-59
2022/04/12 07:02:16;;;;;;;2.25;1.65;;;;;;;14.37;48.67;99288.24;1826515;78;20993;-60
2022/04/12 07:04:43;;;;;;;2.02;1.52;;;;;;;14.38;48.64;99281.05;1826828;78;21060;-60
2022/04/12 07:07:10;;;;;;;1.65;1.50;;;;;;;14.40;48.66;99276.31;1826770;78;21510;-59
2022/04/12 07:09:38;;;;;;;1.85;1.60;;;;;;;14.41;48.67;99279.28;1826806;78;21186;-59
2022/04/12 07:12:08;;;;;;;1.77;1.62;;;;;;;14.41;48.68;99280.12;1826864;78;20958;-60
2022/04/12 07:14:36;;;;;;;2.27;1.37;;;;;;;14.43;48.66;99277.22;1826215;78;21552;-59
2022/04/12 07:17:05;;;;;;;2.22;1.62;;;;;;;14.42;48.63;99283.61;1824992;78;21025;-60
2022/04/12 07:19:33;;;;;;;1.90;1.60;;;;;;;14.43;48.62;99279.89;1826376;78;21495;-59
2022/04/12 07:22:00;;;;;;;2.37;1.70;;;;;;;14.45;48.61;99276.53;1826220;78;21836;-60
2022/04/12 07:24:28;;;;;;;1.87;1.67;;;;;;;14.45;48.61;99272.00;1826161;78;21041;-60
2022/04/12 07:26:56;;;;;;;1.45;1.30;;;;;;;14.47;48.60;99269.13;1826105;78;21065;-61
2022/04/12 07:29:23;;;;;;;1.90;1.70;;;;;;;14.49;48.62;99277.25;1826088;78;20997;-60
2022/04/12 07:31:50;;;;;;;1.87;1.60;;;;;;;14.49;48.60;99273.76;1826153;78;20994;-59
2022/04/12 07:34:17;;;;;;;1.60;1.30;;;;;;;14.50;48.61;99269.52;1819047;77;21081;-60
2022/04/12 07:36:47;;;;;;;2.08;1.70;;;;;;;14.53;48.60;99272.31;1775853;80;20982;-59
2022/04/12 07:39:16;;;;;;;1.40;1.30;;;;;;;14.54;48.62;99269.44;1793599;79;21057;-60
2022/04/12 07:41:45;;;;;;;1.80;1.45;;;;;;;14.56;48.62;99269.22;1793694;79;21001;-59
2022/04/12 07:44:13;;;;;;;3.05;2.02;;;;;;;14.57;48.61;99266.89;1825459;78;21009;-60
2022/04/12 07:46:41;;;;;;;2.30;1.65;;;;;;;14.59;48.63;99264.02;1826246;78;21882;-60
2022/04/12 07:49:08;;;;;;;2.00;1.62;;;;;;;14.61;48.64;99269.46;1826123;78;20974;-59
2022/04/12 07:51:35;;;;;;;1.50;1.40;;;;;;;14.64;48.66;99266.88;1825087;78;21021;-59
2022/04/12 07:54:03;;;;;;;2.10;1.57;;;;;;;14.67;48.71;99257.13;1826145;78;21014;-59
2022/04/12 07:56:31;;;;;;;1.98;1.45;;;;;;;14.68;48.68;99252.91;1826139;78;20954;-59
2022/04/12 07:59:00;;;;;;;1.95;1.50;;;;;;;14.72;48.72;99259.48;1826092;78;21482;-59
2022/04/12 08:01:27;;;;;;;2.08;1.65;;;;;;;14.74;48.74;99254.75;1825166;78;21576;-60
2022/04/12 08:03:54;;;;;;;2.45;1.60;;;;;;;14.77;48.72;99257.52;1814657;78;21033;-60
2022/04/12 08:06:21;;;;;;;2.00;1.80;;;;;;;14.81;48.67;99256.07;1814692;78;21073;-59
2022/04/12 08:08:49;;;;;;;3.25;2.20;;;;;;;14.85;48.73;99257.30;1813521;79;21073;-60
2022/04/12 08:11:16;;;;;;;2.20;1.95;;;;;;;14.88;48.71;99256.08;1814721;79;21127;-61
2022/04/12 08:13:45;;;;;;;1.32;1.22;;;;;;;14.91;48.76;99252.97;1814632;79;20998;-60
2022/04/12 08:16:15;;;;;;;2.05;1.50;;;;;;;14.96;48.79;99268.41;1814782;79;21474;-59
2022/04/12 08:18:44;;;;;;;1.82;1.40;;;;;;;14.97;48.83;99266.88;1814708;78;21018;-59
2022/04/12 08:21:12;;;;;;;1.55;1.40;;;;;;;15.00;48.85;99270.45;1814645;79;21042;-59
2022/04/12 08:23:39;;;;;;;1.90;1.70;;;;;;;15.04;48.93;99257.48;1815015;79;21237;-60
2022/04/12 08:26:07;;;;;;;1.80;1.50;;;;;;;15.06;48.96;99270.13;1813507;78;21022;-59
2022/04/12 08:28:36;;;;;;;1.80;1.57;;;;;;;15.09;49.03;99273.22;1814616;78;20979;-59
2022/04/12 08:31:03;;;;;;;1.92;1.60;;;;;;;15.13;49.08;99270.95;1814645;79;21004;-60
2022/04/12 08:33:30;;;;;;;1.92;1.45;;;;;;;15.16;49.12;99262.48;1814662;78;22024;-61
2022/04/12 08:35:57;;;;;;;1.72;1.52;;;;;;;15.20;49.13;99274.94;1814632;78;21162;-60
2022/04/12 08:38:24;;;;;;;1.60;1.50;;;;;;;15.23;49.12;99273.19;1814626;78;20998;-59
2022/04/12 08:40:54;;;;;;;1.50;1.40;;;;;;;15.25;49.11;99273.80;1814706;78;20996;-59
2022/04/12 08:43:21;;;;;;;1.80;1.47;;;;;;;15.29;49.03;99273.69;1813660;79;21068;-60
2022/04/12 08:45:49;;;;;;;1.65;1.55;;;;;;;15.31;49.02;99275.63;1814770;78;21604;-60
2022/04/12 08:48:16;;;;;;;1.98;1.50;;;;;;;15.34;48.96;99275.22;1810585;79;21126;-60
2022/04/12 08:50:44;;;;;;;2.30;1.60;;;;;;;15.38;48.97;99264.92;1811441;79;21061;-60
2022/04/12 08:53:11;;;;;;;1.85;1.47;;;;;;;15.39;48.93;99278.07;1814659;78;20998;-60
2022/04/12 08:55:39;;;;;;;1.50;1.40;;;;;;;15.43;48.90;99270.45;1814801;78;21065;-59
2022/04/12 08:58:06;;;;;;;1.45;1.30;;;;;;;15.46;48.73;99270.03;1814663;79;21494;-60
2022/04/12 09:00:33;;;;;;;2.10;1.32;;;;;;;15.50;48.66;99265.38;1789974;79;21132;-62
2022/04/12 09:03:00;;;;;;;1.50;1.40;;;;;;;15.53;48.58;99250.24;1773606;80;21045;-60
2022/04/12 09:05:27;;;;;;;1.72;1.52;;;;;;;15.57;48.51;99241.27;1774148;80;21006;-60
2022/04/12 09:07:54;;;;;;;2.10;1.82;;;;;;;15.60;48.48;99245.37;1793440;79;21060;-60
2022/04/12 09:10:34;;;;;;;1.55;1.35;;;;;;;15.63;48.46;99241.75;1793379;80;21002;-60
2022/04/12 09:13:14;;;;;;;1.60;1.45;;;;;;;15.65;48.40;99245.03;1775797;80;21046;-61
2022/04/12 09:15:46;;;;;;;2.35;1.25;;;;;;;15.69;48.36;99217.32;1794670;78;20998;-60
2022/04/12 09:18:13;;;;;;;1.55;1.37;;;;;;;15.72;48.46;99233.78;1793380;80;21021;-61
2022/04/12 09:20:41;;;;;;;1.65;1.50;;;;;;;15.74;48.44;99244.28;1793367;79;21057;-59
2022/04/12 09:23:15;;;;;;;1.92;1.30;;;;;;;15.77;48.37;99246.55;1793367;80;21020;-59
2022/04/12 09:25:54;;;;;;;1.72;1.60;;;;;;;15.79;48.27;99235.62;1793609;79;25595;-60
2022/04/12 09:28:21;;;;;;;2.00;1.60;;;;;;;15.82;48.35;99213.27;1793332;80;21047;-59
2022/04/12 09:31:13;;;;;;;2.45;1.55;;;;;;;15.85;48.45;99208.80;1793381;80;20999;-61
2022/04/12 09:33:44;;;;;;;1.72;1.50;;;;;;;15.90;48.58;99218.36;1794963;78;21489;-61
2022/04/12 09:36:11;;;;;;;1.77;1.40;;;;;;;15.92;48.90;99216.28;1805426;78;21068;-60
2022/04/12 09:38:43;;;;;;;1.57;1.47;;;;;;;15.95;48.83;99219.56;1825802;78;21527;-60
2022/04/12 09:41:15;;;;;;;1.40;1.30;;;;;;;15.96;48.83;99221.22;1825747;78;21524;-59
2022/04/12 09:44:07;;;;;;;1.55;1.45;;;;;;;15.99;48.64;99210.05;1825603;78;20993;-62
2022/04/12 09:46:36;;;;;;;1.40;1.30;;;;;;;16.01;48.47;99214.67;1826158;78;20994;-59
2022/04/12 09:49:06;;;;;;;1.77;1.50;;;;;;;16.03;48.32;99212.59;1825782;78;21006;-60
2022/04/12 09:51:36;;;;;;;1.98;1.45;;;;;;;16.05;48.28;99215.87;1824918;78;21502;-61
2022/04/12 09:54:06;;;;;;;1.72;1.60;;;;;;;16.08;48.66;99210.10;1819923;78;21020;-60
2022/04/12 09:56:34;;;;;;;1.87;1.70;;;;;;;16.09;48.73;99218.45;1823105;78;21010;-60
2022/04/12 09:59:06;;;;;;;1.98;1.30;;;;;;;16.12;48.83;99230.06;1825739;78;21072;-60
2022/04/12 10:01:39;;;;;;;1.65;1.50;;;;;;;16.17;49.01;99216.84;1825805;78;21459;-61
2022/04/12 10:04:01;;;;;;;1.60;1.30;;;;;;;16.21;49.08;99219.39;1825186;78;21975;-60
2022/04/12 10:06:29;;;;;;;1.85;1.50;;;;;;;16.25;49.41;99221.93;1825950;78;21041;-61
2022/04/12 10:09:00;;;;;;;1.98;1.30;;;;;;;16.28;49.38;99212.12;1795688;78;21001;-60
2022/04/12 10:11:26;;;;;;;1.80;1.47;;;;;;;16.31;49.43;99234.45;1793494;79;21025;-60
2022/04/12 10:13:53;;;;;;;1.65;1.37;;;;;;;16.34;49.33;99224.34;1793584;80;21013;-60
2022/04/12 10:16:22;;;;;;;1.37;1.27;;;;;;;16.36;49.22;99253.08;1793409;79;21029;-59
2022/04/12 10:18:50;;;;;;;2.65;1.57;;;;;;;16.37;49.05;99249.38;1793413;79;21025;-60
2022/04/12 10:21:19;;;;;;;1.40;1.30;;;;;;;16.38;49.00;99241.13;1793363;80;21056;-59
2022/04/12 10:23:54;;;;;;;1.70;1.27;;;;;;;16.41;48.90;99250.58;1794616;78;21076;-60
2022/04/12 10:26:22;;;;;;;1.72;1.50;;;;;;;16.41;48.73;99262.11;1793554;79;21110;-60
2022/04/12 10:29:04;;;;;;;2.30;1.40;;;;;;;16.43;48.49;99261.91;1793707;79;21079;-61
2022/04/12 10:31:32;;;;;;;1.70;1.57;;;;;;;16.45;48.30;99263.84;1793365;79;21076;-60
2022/04/12 10:34:05;;;;;;;1.72;1.50;;;;;;;16.45;48.12;99251.78;1811539;78;21021;-62
2022/04/12 10:37:04;;;;;;;1.60;1.27;;;;;;;16.46;48.05;99271.67;1825992;78;20962;-60
2022/04/12 10:39:39;;;;;;;1.62;1.50;;;;;;;16.48;47.93;99271.47;1825797;78;21181;-59
2022/04/12 10:42:11;;;;;;;1.72;1.40;;;;;;;16.47;47.78;99270.63;1824690;78;22060;-60
2022/04/12 10:44:46;;;;;;;1.20;1.10;;;;;;;16.47;47.68;99266.59;1825807;78;20974;-62
2022/04/12 10:47:32;;;;;;;1.65;1.30;;;;;;;16.48;47.61;99262.08;1826355;78;21009;-60
2022/04/12 10:50:10;;;;;;;1.30;1.20;;;;;;;16.50;47.54;99262.16;1808569;78;20998;-61
2022/04/12 10:52:49;;;;;;;1.92;1.42;;;;;;;16.51;47.49;99251.75;1826521;78;21033;-60
2022/04/12 10:55:27;;;;;;;1.70;1.20;;;;;;;16.53;47.57;99254.71;1826014;78;21181;-61
2022/04/12 10:58:13;;;;;;;2.02;1.50;;;;;;;16.54;47.63;99262.55;1824855;78;21237;-59
2022/04/12 11:00:42;;;;;;;1.52;1.42;;;;;;;16.57;47.65;99259.94;1823442;78;21076;-60
2022/04/12 11:03:09;;;;;;;1.15;1.05;;;;;;;16.58;47.61;99252.20;1826070;78;20986;-62
2022/04/12 11:05:42;;;;;;;1.72;1.47;;;;;;;16.59;47.71;99253.33;1826114;78;21104;-59
2022/04/12 11:08:20;;;;;;;1.90;1.45;;;;;;;16.62;47.70;99258.77;1826211;78;21260;-60
2022/04/12 11:10:57;;;;;;;1.77;1.27;;;;;;;16.64;47.64;99258.84;1826054;78;21014;-60
2022/04/12 11:13:31;;;;;;;1.55;1.37;;;;;;;16.66;47.53;99248.70;1826206;78;21096;-61
2022/04/12 11:16:11;;;;;;;1.20;1.10;;;;;;;16.69;47.65;99267.05;1808432;78;21060;-62
2022/04/12 11:18:59;;;;;;;1.57;1.47;;;;;;;16.71;47.72;99255.59;1793725;80;21056;-60
2022/04/12 11:21:29;;;;;;;1.60;1.40;;;;;;;16.73;47.77;99258.05;1793665;79;21138;-59
2022/04/12 11:24:02;;;;;;;1.47;1.37;;;;;;;16.75;47.75;99273.41;1758634;80;20977;-60
2022/04/12 11:26:50;;;;;;;1.67;1.37;;;;;;;16.76;47.72;99266.98;1793742;79;25599;-60
2022/04/12 11:29:20;;;;;;;1.65;1.20;;;;;;;16.78;47.56;99273.48;1793624;80;21045;-60
2022/04/12 11:31:50;;;;;;;1.57;1.47;;;;;;;16.79;47.42;99265.75;1794701;78;21517;-60
2022/04/12 11:34:18;;;;;;;2.10;1.50;;;;;;;16.81;47.30;99271.18;1838724;77;21101;-60
2022/04/12 11:37:00;;;;;;;1.72;1.30;;;;;;;16.83;47.30;99266.97;1859704;77;21061;-59
2022/04/12 11:39:30;;;;;;;1.67;1.35;;;;;;;16.84;47.30;99259.20;1859533;76;21005;-63
2022/04/12 11:42:00;;;;;;;1.37;1.27;;;;;;;16.86;47.18;99262.48;1859602;76;21029;-61
2022/04/12 11:44:27;;;;;;;1.20;1.10;;;;;;;16.88;47.13;99273.81;1860085;77;21552;-60
2022/04/12 11:47:01;;;;;;;1.37;1.27;;;;;;;16.91;47.13;99281.44;1859906;76;21244;-62